sensor_id;sensor_type;location;lat;lon;timestamp;P1;durP1;ratioP1;P2;durP2;ratioP2
79533;SDS011;68982;52.160;6.736;2023-08-06T00:01:23;7.55;;;5.53;;
79533;SDS011;68982;52.160;6.736;2023-08-06T00:03:49;7.57;;;5.00;;
79533;SDS011;68982;52.160;6.736;2023-08-06T00:06:14;7.20;;;4.63;;
79533;SDS011;68982;52.160;6.736;2023-08-06T00:08:39;5.88;;;4.93;;
79533;SDS011;68982;52.160;6.736;2023-08-06T00:11:05;6.25;;;4.95;;
79533;SDS011;68982;52.160;6.736;2023-08-06T00:13:30;6.68;;;4.90;;
79533;SDS011;68982;52.160;6.736;2023-08-06T00:15:55;7.35;;;5.32;;
79533;SDS011;68982;52.160;6.736;2023-08-06T00:18:21;7.22;;;4.82;;
79533;SDS011;68982;52.160;6.736;2023-08-06T00:20:46;7.95;;;5.20;;
79533;SDS011;68982;52.160;6.736;2023-08-06T00:23:11;6.30;;;4.75;;
79533;SDS011;68982;52.160;6.736;2023-08-06T00:25:38;6.40;;;4.57;;
79533;SDS011;68982;52.160;6.736;2023-08-06T00:28:03;8.93;;;5.03;;
79533;SDS011;68982;52.160;6.736;2023-08-06T00:30:28;9.55;;;5.30;;
79533;SDS011;68982;52.160;6.736;2023-08-06T00:32:54;8.10;;;5.72;;
79533;SDS011;68982;52.160;6.736;2023-08-06T00:35:19;6.95;;;5.32;;
79533;SDS011;68982;52.160;6.736;2023-08-06T00:37:45;7.18;;;5.03;;
79533;SDS011;68982;52.160;6.736;2023-08-06T00:40:10;8.35;;;6.03;;
79533;SDS011;68982;52.160;6.736;2023-08-06T00:42:35;7.60;;;5.55;;
79533;SDS011;68982;52.160;6.736;2023-08-06T00:45:01;7.88;;;6.45;;
79533;SDS011;68982;52.160;6.736;2023-08-06T00:47:27;7.50;;;5.00;;
79533;SDS011;68982;52.160;6.736;2023-08-06T00:49:53;8.32;;;6.28;;
79533;SDS011;68982;52.160;6.736;2023-08-06T00:52:19;7.93;;;5.90;;
79533;SDS011;68982;52.160;6.736;2023-08-06T00:54:44;9.52;;;5.53;;
79533;SDS011;68982;52.160;6.736;2023-08-06T00:57:10;8.38;;;6.05;;
79533;SDS011;68982;52.160;6.736;2023-08-06T00:59:36;8.95;;;6.82;;
79533;SDS011;68982;52.160;6.736;2023-08-06T01:02:02;6.97;;;5.72;;
79533;SDS011;68982;52.160;6.736;2023-08-06T01:04:27;9.45;;;5.82;;
79533;SDS011;68982;52.160;6.736;2023-08-06T01:07:02;6.07;;;4.70;;
79533;SDS011;68982;52.160;6.736;2023-08-06T01:12:37;9.65;;;6.70;;
79533;SDS011;68982;52.160;6.736;2023-08-06T01:15:18;11.02;;;6.85;;
79533;SDS011;68982;52.160;6.736;2023-08-06T01:17:48;10.73;;;7.30;;
79533;SDS011;68982;52.160;6.736;2023-08-06T01:20:15;9.38;;;6.20;;
79533;SDS011;68982;52.160;6.736;2023-08-06T01:22:40;9.32;;;6.70;;
79533;SDS011;68982;52.160;6.736;2023-08-06T01:25:05;11.73;;;6.93;;
79533;SDS011;68982;52.160;6.736;2023-08-06T01:27:43;7.35;;;5.85;;
79533;SDS011;68982;52.160;6.736;2023-08-06T01:30:13;8.13;;;5.68;;
79533;SDS011;68982;52.160;6.736;2023-08-06T01:32:44;9.07;;;5.57;;
79533;SDS011;68982;52.160;6.736;2023-08-06T01:35:11;8.85;;;5.80;;
79533;SDS011;68982;52.160;6.736;2023-08-06T01:37:39;11.25;;;5.95;;
79533;SDS011;68982;52.160;6.736;2023-08-06T01:40:06;8.90;;;6.18;;
79533;SDS011;68982;52.160;6.736;2023-08-06T01:42:34;8.27;;;6.13;;
79533;SDS011;68982;52.160;6.736;2023-08-06T01:45:00;5.60;;;4.57;;
79533;SDS011;68982;52.160;6.736;2023-08-06T01:47:25;7.50;;;5.78;;
79533;SDS011;68982;52.160;6.736;2023-08-06T01:49:50;8.50;;;5.90;;
79533;SDS011;68982;52.160;6.736;2023-08-06T01:52:16;7.35;;;5.25;;
79533;SDS011;68982;52.160;6.736;2023-08-06T01:54:41;7.78;;;6.22;;
79533;SDS011;68982;52.160;6.736;2023-08-06T01:57:06;11.18;;;5.80;;
79533;SDS011;68982;52.160;6.736;2023-08-06T01:59:32;6.80;;;5.38;;
79533;SDS011;68982;52.160;6.736;2023-08-06T02:01:57;7.20;;;4.10;;
79533;SDS011;68982;52.160;6.736;2023-08-06T02:04:22;5.43;;;4.23;;
79533;SDS011;68982;52.160;6.736;2023-08-06T02:06:48;7.68;;;5.75;;
79533;SDS011;68982;52.160;6.736;2023-08-06T02:09:13;6.25;;;4.40;;
79533;SDS011;68982;52.160;6.736;2023-08-06T02:11:38;6.68;;;4.80;;
79533;SDS011;68982;52.160;6.736;2023-08-06T02:14:04;6.18;;;4.88;;
79533;SDS011;68982;52.160;6.736;2023-08-06T02:16:29;8.35;;;5.60;;
79533;SDS011;68982;52.160;6.736;2023-08-06T02:18:54;6.05;;;4.70;;
79533;SDS011;68982;52.160;6.736;2023-08-06T02:21:20;5.60;;;4.13;;
79533;SDS011;68982;52.160;6.736;2023-08-06T02:23:45;5.95;;;5.20;;
79533;SDS011;68982;52.160;6.736;2023-08-06T02:26:11;7.95;;;4.93;;
79533;SDS011;68982;52.160;6.736;2023-08-06T02:28:36;6.80;;;4.78;;
79533;SDS011;68982;52.160;6.736;2023-08-06T02:31:01;9.30;;;6.07;;
79533;SDS011;68982;52.160;6.736;2023-08-06T02:33:27;5.95;;;3.90;;
79533;SDS011;68982;52.160;6.736;2023-08-06T02:35:58;8.73;;;5.20;;
79533;SDS011;68982;52.160;6.736;2023-08-06T02:38:25;9.77;;;6.25;;
79533;SDS011;68982;52.160;6.736;2023-08-06T02:40:50;5.33;;;4.20;;
79533;SDS011;68982;52.160;6.736;2023-08-06T02:43:15;9.40;;;5.68;;
79533;SDS011;68982;52.160;6.736;2023-08-06T02:45:41;6.50;;;4.65;;
79533;SDS011;68982;52.160;6.736;2023-08-06T02:48:06;7.88;;;5.38;;
79533;SDS011;68982;52.160;6.736;2023-08-06T02:50:38;8.35;;;6.07;;
79533;SDS011;68982;52.160;6.736;2023-08-06T02:53:04;10.57;;;6.07;;
79533;SDS011;68982;52.160;6.736;2023-08-06T02:55:30;11.52;;;6.80;;
79533;SDS011;68982;52.160;6.736;2023-08-06T02:57:56;9.57;;;6.43;;
79533;SDS011;68982;52.160;6.736;2023-08-06T03:00:21;10.63;;;6.20;;
79533;SDS011;68982;52.160;6.736;2023-08-06T03:02:46;7.97;;;5.03;;
79533;SDS011;68982;52.160;6.736;2023-08-06T03:05:12;7.27;;;5.73;;
79533;SDS011;68982;52.160;6.736;2023-08-06T03:07:37;9.05;;;6.50;;
79533;SDS011;68982;52.160;6.736;2023-08-06T03:10:03;11.82;;;6.40;;
79533;SDS011;68982;52.160;6.736;2023-08-06T03:12:28;10.15;;;6.85;;
79533;SDS011;68982;52.160;6.736;2023-08-06T03:14:54;10.25;;;6.85;;
79533;SDS011;68982;52.160;6.736;2023-08-06T03:17:19;9.30;;;5.72;;
79533;SDS011;68982;52.160;6.736;2023-08-06T03:19:44;8.23;;;5.88;;
79533;SDS011;68982;52.160;6.736;2023-08-06T03:22:10;8.93;;;6.22;;
79533;SDS011;68982;52.160;6.736;2023-08-06T03:24:35;7.65;;;5.18;;
79533;SDS011;68982;52.160;6.736;2023-08-06T03:27:01;11.25;;;6.78;;
79533;SDS011;68982;52.160;6.736;2023-08-06T03:29:26;9.27;;;6.32;;
79533;SDS011;68982;52.160;6.736;2023-08-06T03:31:54;9.60;;;6.68;;
79533;SDS011;68982;52.160;6.736;2023-08-06T03:34:20;8.98;;;6.18;;
79533;SDS011;68982;52.160;6.736;2023-08-06T03:36:45;9.93;;;7.57;;
79533;SDS011;68982;52.160;6.736;2023-08-06T03:39:10;8.70;;;5.82;;
79533;SDS011;68982;52.160;6.736;2023-08-06T03:41:36;7.30;;;5.47;;
79533;SDS011;68982;52.160;6.736;2023-08-06T03:44:01;10.18;;;6.72;;
79533;SDS011;68982;52.160;6.736;2023-08-06T03:46:28;8.15;;;6.03;;
79533;SDS011;68982;52.160;6.736;2023-08-06T03:48:54;11.10;;;7.28;;
79533;SDS011;68982;52.160;6.736;2023-08-06T03:51:19;8.68;;;6.22;;
79533;SDS011;68982;52.160;6.736;2023-08-06T03:53:45;11.15;;;7.15;;
79533;SDS011;68982;52.160;6.736;2023-08-06T03:56:10;6.55;;;5.00;;
79533;SDS011;68982;52.160;6.736;2023-08-06T03:58:35;12.27;;;7.28;;
79533;SDS011;68982;52.160;6.736;2023-08-06T04:01:01;8.57;;;6.65;;
79533;SDS011;68982;52.160;6.736;2023-08-06T04:03:27;9.15;;;6.60;;
79533;SDS011;68982;52.160;6.736;2023-08-06T04:05:53;8.70;;;5.75;;
79533;SDS011;68982;52.160;6.736;2023-08-06T04:08:19;6.85;;;5.68;;
79533;SDS011;68982;52.160;6.736;2023-08-06T04:10:45;8.27;;;6.22;;
79533;SDS011;68982;52.160;6.736;2023-08-06T04:13:10;13.07;;;7.70;;
79533;SDS011;68982;52.160;6.736;2023-08-06T04:15:36;11.45;;;7.78;;
79533;SDS011;68982;52.160;6.736;2023-08-06T04:18:01;8.17;;;6.17;;
79533;SDS011;68982;52.160;6.736;2023-08-06T04:20:26;9.10;;;5.85;;
79533;SDS011;68982;52.160;6.736;2023-08-06T04:22:54;9.73;;;5.38;;
79533;SDS011;68982;52.160;6.736;2023-08-06T04:25:19;8.57;;;6.18;;
79533;SDS011;68982;52.160;6.736;2023-08-06T04:27:46;10.45;;;7.55;;
79533;SDS011;68982;52.160;6.736;2023-08-06T04:30:12;9.60;;;5.93;;
79533;SDS011;68982;52.160;6.736;2023-08-06T04:32:38;9.65;;;7.40;;
79533;SDS011;68982;52.160;6.736;2023-08-06T04:35:04;7.70;;;6.35;;
79533;SDS011;68982;52.160;6.736;2023-08-06T04:37:30;7.40;;;5.28;;
79533;SDS011;68982;52.160;6.736;2023-08-06T04:39:55;7.85;;;5.68;;
79533;SDS011;68982;52.160;6.736;2023-08-06T04:42:20;7.50;;;5.50;;
79533;SDS011;68982;52.160;6.736;2023-08-06T04:44:46;6.57;;;4.75;;
79533;SDS011;68982;52.160;6.736;2023-08-06T04:47:11;9.20;;;6.22;;
79533;SDS011;68982;52.160;6.736;2023-08-06T04:49:36;10.50;;;6.68;;
79533;SDS011;68982;52.160;6.736;2023-08-06T04:52:02;11.23;;;7.93;;
79533;SDS011;68982;52.160;6.736;2023-08-06T04:54:27;9.60;;;7.03;;
79533;SDS011;68982;52.160;6.736;2023-08-06T04:56:53;10.70;;;8.00;;
79533;SDS011;68982;52.160;6.736;2023-08-06T04:59:18;11.65;;;8.00;;
79533;SDS011;68982;52.160;6.736;2023-08-06T05:01:43;12.95;;;8.07;;
79533;SDS011;68982;52.160;6.736;2023-08-06T05:04:09;11.40;;;7.53;;
79533;SDS011;68982;52.160;6.736;2023-08-06T05:06:34;8.32;;;5.65;;
79533;SDS011;68982;52.160;6.736;2023-08-06T05:09:00;11.23;;;7.05;;
79533;SDS011;68982;52.160;6.736;2023-08-06T05:11:25;7.32;;;5.38;;
79533;SDS011;68982;52.160;6.736;2023-08-06T05:13:50;10.27;;;7.28;;
79533;SDS011;68982;52.160;6.736;2023-08-06T05:16:16;9.52;;;5.93;;
79533;SDS011;68982;52.160;6.736;2023-08-06T05:18:41;10.48;;;7.78;;
79533;SDS011;68982;52.160;6.736;2023-08-06T05:21:07;11.63;;;7.75;;
79533;SDS011;68982;52.160;6.736;2023-08-06T05:23:32;7.35;;;5.53;;
79533;SDS011;68982;52.160;6.736;2023-08-06T05:25:57;11.57;;;7.22;;
79533;SDS011;68982;52.160;6.736;2023-08-06T05:28:23;8.75;;;6.72;;
79533;SDS011;68982;52.160;6.736;2023-08-06T05:30:48;7.35;;;5.20;;
79533;SDS011;68982;52.160;6.736;2023-08-06T05:33:14;8.27;;;5.95;;
79533;SDS011;68982;52.160;6.736;2023-08-06T05:35:40;8.65;;;5.78;;
79533;SDS011;68982;52.160;6.736;2023-08-06T05:38:06;7.30;;;5.53;;
79533;SDS011;68982;52.160;6.736;2023-08-06T05:40:33;8.70;;;6.60;;
79533;SDS011;68982;52.160;6.736;2023-08-06T05:42:59;10.10;;;7.40;;
79533;SDS011;68982;52.160;6.736;2023-08-06T05:45:24;13.38;;;8.55;;
79533;SDS011;68982;52.160;6.736;2023-08-06T05:47:49;6.88;;;5.00;;
79533;SDS011;68982;52.160;6.736;2023-08-06T05:50:15;10.93;;;7.03;;
79533;SDS011;68982;52.160;6.736;2023-08-06T05:52:40;15.13;;;7.72;;
79533;SDS011;68982;52.160;6.736;2023-08-06T05:55:06;10.00;;;7.20;;
79533;SDS011;68982;52.160;6.736;2023-08-06T05:57:32;10.23;;;7.30;;
79533;SDS011;68982;52.160;6.736;2023-08-06T05:59:57;9.95;;;7.65;;
79533;SDS011;68982;52.160;6.736;2023-08-06T06:02:22;9.60;;;7.37;;
79533;SDS011;68982;52.160;6.736;2023-08-06T06:04:48;10.60;;;8.17;;
79533;SDS011;68982;52.160;6.736;2023-08-06T06:07:13;14.52;;;8.13;;
79533;SDS011;68982;52.160;6.736;2023-08-06T06:09:39;9.65;;;6.40;;
79533;SDS011;68982;52.160;6.736;2023-08-06T06:12:05;12.27;;;8.27;;
79533;SDS011;68982;52.160;6.736;2023-08-06T06:14:31;10.98;;;8.10;;
79533;SDS011;68982;52.160;6.736;2023-08-06T06:16:56;10.07;;;7.80;;
79533;SDS011;68982;52.160;6.736;2023-08-06T06:19:21;8.70;;;6.38;;
79533;SDS011;68982;52.160;6.736;2023-08-06T06:21:47;12.30;;;7.95;;
79533;SDS011;68982;52.160;6.736;2023-08-06T06:24:12;10.00;;;7.65;;
79533;SDS011;68982;52.160;6.736;2023-08-06T06:26:38;9.60;;;6.70;;
79533;SDS011;68982;52.160;6.736;2023-08-06T06:29:04;8.65;;;6.70;;
79533;SDS011;68982;52.160;6.736;2023-08-06T06:31:29;8.60;;;5.68;;
79533;SDS011;68982;52.160;6.736;2023-08-06T06:33:55;6.15;;;5.15;;
79533;SDS011;68982;52.160;6.736;2023-08-06T06:36:20;8.63;;;5.18;;
79533;SDS011;68982;52.160;6.736;2023-08-06T06:38:46;7.72;;;5.82;;
79533;SDS011;68982;52.160;6.736;2023-08-06T06:41:11;9.32;;;6.57;;
79533;SDS011;68982;52.160;6.736;2023-08-06T06:43:37;6.60;;;5.25;;
79533;SDS011;68982;52.160;6.736;2023-08-06T06:46:03;8.75;;;5.68;;
79533;SDS011;68982;52.160;6.736;2023-08-06T06:48:31;9.73;;;7.20;;
79533;SDS011;68982;52.160;6.736;2023-08-06T06:50:57;8.25;;;6.35;;
79533;SDS011;68982;52.160;6.736;2023-08-06T06:53:23;7.88;;;5.65;;
79533;SDS011;68982;52.160;6.736;2023-08-06T06:55:55;9.85;;;5.47;;
79533;SDS011;68982;52.160;6.736;2023-08-06T06:58:33;8.38;;;5.07;;
79533;SDS011;68982;52.160;6.736;2023-08-06T07:00:58;7.40;;;4.60;;
79533;SDS011;68982;52.160;6.736;2023-08-06T07:03:24;7.70;;;5.20;;
79533;SDS011;68982;52.160;6.736;2023-08-06T07:05:49;7.80;;;5.05;;
79533;SDS011;68982;52.160;6.736;2023-08-06T07:08:15;6.43;;;4.57;;
79533;SDS011;68982;52.160;6.736;2023-08-06T07:10:40;8.60;;;4.57;;
79533;SDS011;68982;52.160;6.736;2023-08-06T07:13:07;8.13;;;5.60;;
79533;SDS011;68982;52.160;6.736;2023-08-06T07:15:33;9.30;;;6.13;;
79533;SDS011;68982;52.160;6.736;2023-08-06T07:17:58;9.43;;;5.95;;
79533;SDS011;68982;52.160;6.736;2023-08-06T07:20:23;11.75;;;6.00;;
79533;SDS011;68982;52.160;6.736;2023-08-06T07:22:49;12.20;;;6.78;;
79533;SDS011;68982;52.160;6.736;2023-08-06T07:25:15;8.68;;;6.30;;
79533;SDS011;68982;52.160;6.736;2023-08-06T07:27:41;9.48;;;5.90;;
79533;SDS011;68982;52.160;6.736;2023-08-06T07:30:06;14.90;;;6.38;;
79533;SDS011;68982;52.160;6.736;2023-08-06T07:32:32;5.82;;;4.60;;
79533;SDS011;68982;52.160;6.736;2023-08-06T07:34:57;9.23;;;5.82;;
79533;SDS011;68982;52.160;6.736;2023-08-06T07:37:29;6.35;;;4.47;;
79533;SDS011;68982;52.160;6.736;2023-08-06T07:39:55;9.20;;;4.95;;
79533;SDS011;68982;52.160;6.736;2023-08-06T07:42:22;6.63;;;4.97;;
79533;SDS011;68982;52.160;6.736;2023-08-06T07:44:51;6.97;;;5.72;;
79533;SDS011;68982;52.160;6.736;2023-08-06T07:47:18;7.60;;;5.18;;
79533;SDS011;68982;52.160;6.736;2023-08-06T07:49:43;8.38;;;4.88;;
79533;SDS011;68982;52.160;6.736;2023-08-06T07:52:09;6.53;;;4.93;;
79533;SDS011;68982;52.160;6.736;2023-08-06T07:54:34;5.47;;;4.50;;
79533;SDS011;68982;52.160;6.736;2023-08-06T07:57:00;9.43;;;5.03;;
79533;SDS011;68982;52.160;6.736;2023-08-06T07:59:25;6.22;;;4.75;;
79533;SDS011;68982;52.160;6.736;2023-08-06T08:01:50;7.50;;;4.47;;
79533;SDS011;68982;52.160;6.736;2023-08-06T08:04:16;7.95;;;5.10;;
79533;SDS011;68982;52.160;6.736;2023-08-06T08:06:41;8.10;;;5.50;;
79533;SDS011;68982;52.160;6.736;2023-08-06T08:09:06;6.80;;;5.15;;
79533;SDS011;68982;52.160;6.736;2023-08-06T08:11:32;7.38;;;5.13;;
79533;SDS011;68982;52.160;6.736;2023-08-06T08:13:57;10.63;;;6.35;;
79533;SDS011;68982;52.160;6.736;2023-08-06T08:16:22;11.63;;;6.45;;
79533;SDS011;68982;52.160;6.736;2023-08-06T08:18:48;7.57;;;5.25;;
79533;SDS011;68982;52.160;6.736;2023-08-06T08:21:13;6.43;;;5.05;;
79533;SDS011;68982;52.160;6.736;2023-08-06T08:23:39;9.35;;;5.57;;
79533;SDS011;68982;52.160;6.736;2023-08-06T08:26:05;7.97;;;4.93;;
79533;SDS011;68982;52.160;6.736;2023-08-06T08:28:30;9.27;;;5.47;;
79533;SDS011;68982;52.160;6.736;2023-08-06T08:30:56;7.70;;;5.23;;
79533;SDS011;68982;52.160;6.736;2023-08-06T08:33:21;6.68;;;5.15;;
79533;SDS011;68982;52.160;6.736;2023-08-06T08:35:47;8.85;;;5.22;;
79533;SDS011;68982;52.160;6.736;2023-08-06T08:38:12;7.47;;;5.35;;
79533;SDS011;68982;52.160;6.736;2023-08-06T08:40:39;6.50;;;5.50;;
79533;SDS011;68982;52.160;6.736;2023-08-06T08:43:12;9.75;;;5.13;;
79533;SDS011;68982;52.160;6.736;2023-08-06T08:45:39;5.97;;;4.80;;
79533;SDS011;68982;52.160;6.736;2023-08-06T08:48:07;5.10;;;4.60;;
79533;SDS011;68982;52.160;6.736;2023-08-06T08:50:36;10.27;;;4.65;;
79533;SDS011;68982;52.160;6.736;2023-08-06T08:53:01;6.55;;;5.07;;
79533;SDS011;68982;52.160;6.736;2023-08-06T08:55:27;5.03;;;4.30;;
79533;SDS011;68982;52.160;6.736;2023-08-06T08:57:53;6.13;;;4.25;;
79533;SDS011;68982;52.160;6.736;2023-08-06T09:00:18;8.60;;;5.90;;
79533;SDS011;68982;52.160;6.736;2023-08-06T09:02:44;6.10;;;5.03;;
79533;SDS011;68982;52.160;6.736;2023-08-06T09:05:09;6.50;;;4.97;;
79533;SDS011;68982;52.160;6.736;2023-08-06T09:07:37;6.35;;;5.18;;
79533;SDS011;68982;52.160;6.736;2023-08-06T09:10:08;6.38;;;5.22;;
79533;SDS011;68982;52.160;6.736;2023-08-06T09:12:36;7.28;;;5.57;;
79533;SDS011;68982;52.160;6.736;2023-08-06T09:15:02;7.00;;;5.18;;
79533;SDS011;68982;52.160;6.736;2023-08-06T09:17:28;7.80;;;5.60;;
79533;SDS011;68982;52.160;6.736;2023-08-06T09:19:54;8.60;;;6.32;;
79533;SDS011;68982;52.160;6.736;2023-08-06T09:22:19;6.63;;;5.15;;
79533;SDS011;68982;52.160;6.736;2023-08-06T09:24:45;6.38;;;5.03;;
79533;SDS011;68982;52.160;6.736;2023-08-06T09:27:11;6.70;;;5.65;;
79533;SDS011;68982;52.160;6.736;2023-08-06T09:29:45;5.78;;;5.13;;
79533;SDS011;68982;52.160;6.736;2023-08-06T09:32:11;6.47;;;5.13;;
79533;SDS011;68982;52.160;6.736;2023-08-06T09:34:41;10.52;;;5.40;;
79533;SDS011;68982;52.160;6.736;2023-08-06T09:37:08;6.90;;;5.35;;
79533;SDS011;68982;52.160;6.736;2023-08-06T09:39:35;7.68;;;4.97;;
79533;SDS011;68982;52.160;6.736;2023-08-06T09:42:01;6.03;;;4.78;;
79533;SDS011;68982;52.160;6.736;2023-08-06T09:44:27;6.70;;;5.32;;
79533;SDS011;68982;52.160;6.736;2023-08-06T09:46:55;6.18;;;4.95;;
79533;SDS011;68982;52.160;6.736;2023-08-06T09:49:24;6.28;;;5.00;;
79533;SDS011;68982;52.160;6.736;2023-08-06T09:51:52;6.47;;;4.28;;
79533;SDS011;68982;52.160;6.736;2023-08-06T09:54:20;5.50;;;4.50;;
79533;SDS011;68982;52.160;6.736;2023-08-06T09:56:51;6.70;;;4.40;;
79533;SDS011;68982;52.160;6.736;2023-08-06T09:59:17;5.60;;;4.55;;
79533;SDS011;68982;52.160;6.736;2023-08-06T10:01:44;6.53;;;4.60;;
79533;SDS011;68982;52.160;6.736;2023-08-06T10:04:10;4.93;;;4.30;;
79533;SDS011;68982;52.160;6.736;2023-08-06T10:06:41;4.50;;;3.67;;
79533;SDS011;68982;52.160;6.736;2023-08-06T10:09:07;5.47;;;4.50;;
79533;SDS011;68982;52.160;6.736;2023-08-06T10:11:34;5.57;;;4.35;;
79533;SDS011;68982;52.160;6.736;2023-08-06T10:14:04;6.10;;;4.70;;
79533;SDS011;68982;52.160;6.736;2023-08-06T10:16:33;7.03;;;4.55;;
79533;SDS011;68982;52.160;6.736;2023-08-06T10:19:03;6.97;;;4.50;;
79533;SDS011;68982;52.160;6.736;2023-08-06T10:21:32;6.65;;;5.45;;
79533;SDS011;68982;52.160;6.736;2023-08-06T10:23:58;6.47;;;4.50;;
79533;SDS011;68982;52.160;6.736;2023-08-06T10:26:30;6.50;;;4.47;;
79533;SDS011;68982;52.160;6.736;2023-08-06T10:28:55;5.32;;;3.80;;
79533;SDS011;68982;52.160;6.736;2023-08-06T10:32:07;4.78;;;3.92;;
79533;SDS011;68982;52.160;6.736;2023-08-06T10:34:20;4.90;;;3.60;;
79533;SDS011;68982;52.160;6.736;2023-08-06T10:36:46;4.88;;;4.03;;
79533;SDS011;68982;52.160;6.736;2023-08-06T10:39:14;4.65;;;3.97;;
79533;SDS011;68982;52.160;6.736;2023-08-06T10:41:42;5.35;;;3.92;;
79533;SDS011;68982;52.160;6.736;2023-08-06T10:44:08;3.72;;;3.30;;
79533;SDS011;68982;52.160;6.736;2023-08-06T10:46:35;6.80;;;4.47;;
79533;SDS011;68982;52.160;6.736;2023-08-06T10:49:01;5.85;;;4.70;;
79533;SDS011;68982;52.160;6.736;2023-08-06T10:51:28;6.85;;;4.80;;
79533;SDS011;68982;52.160;6.736;2023-08-06T10:53:53;5.93;;;4.80;;
79533;SDS011;68982;52.160;6.736;2023-08-06T10:56:23;5.53;;;4.75;;
79533;SDS011;68982;52.160;6.736;2023-08-06T10:58:51;7.05;;;4.30;;
79533;SDS011;68982;52.160;6.736;2023-08-06T11:01:18;5.57;;;4.85;;
79533;SDS011;68982;52.160;6.736;2023-08-06T11:03:44;6.43;;;4.45;;
79533;SDS011;68982;52.160;6.736;2023-08-06T11:08:47;7.93;;;5.40;;
79533;SDS011;68982;52.160;6.736;2023-08-06T11:11:14;9.60;;;5.38;;
79533;SDS011;68982;52.160;6.736;2023-08-06T11:13:40;6.85;;;5.25;;
79533;SDS011;68982;52.160;6.736;2023-08-06T11:16:07;6.22;;;5.45;;
79533;SDS011;68982;52.160;6.736;2023-08-06T11:18:33;6.53;;;5.68;;
79533;SDS011;68982;52.160;6.736;2023-08-06T11:20:59;7.03;;;5.47;;
79533;SDS011;68982;52.160;6.736;2023-08-06T11:23:26;7.18;;;5.07;;
79533;SDS011;68982;52.160;6.736;2023-08-06T11:25:53;9.35;;;5.03;;
79533;SDS011;68982;52.160;6.736;2023-08-06T11:28:19;5.82;;;4.60;;
79533;SDS011;68982;52.160;6.736;2023-08-06T11:33:12;7.38;;;3.65;;
79533;SDS011;68982;52.160;6.736;2023-08-06T11:35:37;6.90;;;3.67;;
79533;SDS011;68982;52.160;6.736;2023-08-06T11:38:03;7.05;;;3.90;;
79533;SDS011;68982;52.160;6.736;2023-08-06T11:40:28;10.68;;;4.93;;
79533;SDS011;68982;52.160;6.736;2023-08-06T11:42:54;6.20;;;4.93;;
79533;SDS011;68982;52.160;6.736;2023-08-06T11:45:22;8.48;;;4.53;;
79533;SDS011;68982;52.160;6.736;2023-08-06T11:47:52;6.90;;;4.68;;
79533;SDS011;68982;52.160;6.736;2023-08-06T11:50:24;7.78;;;4.43;;
79533;SDS011;68982;52.160;6.736;2023-08-06T11:52:53;6.43;;;5.05;;
79533;SDS011;68982;52.160;6.736;2023-08-06T11:55:22;6.53;;;4.95;;
79533;SDS011;68982;52.160;6.736;2023-08-06T11:57:49;7.30;;;4.90;;
79533;SDS011;68982;52.160;6.736;2023-08-06T12:00:14;6.53;;;4.97;;
79533;SDS011;68982;52.160;6.736;2023-08-06T12:02:42;7.38;;;5.13;;
79533;SDS011;68982;52.160;6.736;2023-08-06T12:07:36;5.53;;;4.70;;
79533;SDS011;68982;52.160;6.736;2023-08-06T12:10:04;6.85;;;4.72;;
79533;SDS011;68982;52.160;6.736;2023-08-06T12:12:30;6.40;;;5.65;;
79533;SDS011;68982;52.160;6.736;2023-08-06T12:14:55;8.13;;;6.95;;
79533;SDS011;68982;52.160;6.736;2023-08-06T12:17:21;10.15;;;8.30;;
79533;SDS011;68982;52.160;6.736;2023-08-06T12:19:50;9.77;;;8.70;;
79533;SDS011;68982;52.160;6.736;2023-08-06T12:22:16;12.10;;;9.57;;
79533;SDS011;68982;52.160;6.736;2023-08-06T12:24:45;11.88;;;9.30;;
79533;SDS011;68982;52.160;6.736;2023-08-06T12:27:12;10.80;;;9.05;;
79533;SDS011;68982;52.160;6.736;2023-08-06T12:29:41;12.65;;;9.65;;
79533;SDS011;68982;52.160;6.736;2023-08-06T12:32:11;14.43;;;10.80;;
79533;SDS011;68982;52.160;6.736;2023-08-06T12:34:40;12.77;;;9.55;;
79533;SDS011;68982;52.160;6.736;2023-08-06T12:37:06;13.18;;;10.05;;
79533;SDS011;68982;52.160;6.736;2023-08-06T12:39:35;12.00;;;9.05;;
79533;SDS011;68982;52.160;6.736;2023-08-06T12:42:01;11.93;;;9.48;;
79533;SDS011;68982;52.160;6.736;2023-08-06T12:44:27;10.27;;;7.93;;
79533;SDS011;68982;52.160;6.736;2023-08-06T12:46:53;8.27;;;6.85;;
79533;SDS011;68982;52.160;6.736;2023-08-06T12:49:19;9.25;;;6.68;;
79533;SDS011;68982;52.160;6.736;2023-08-06T12:51:48;8.65;;;6.50;;
79533;SDS011;68982;52.160;6.736;2023-08-06T12:54:14;8.88;;;6.57;;
79533;SDS011;68982;52.160;6.736;2023-08-06T12:56:41;7.50;;;6.28;;
79533;SDS011;68982;52.160;6.736;2023-08-06T12:59:06;8.68;;;7.00;;
79533;SDS011;68982;52.160;6.736;2023-08-06T13:01:32;9.10;;;7.13;;
79533;SDS011;68982;52.160;6.736;2023-08-06T13:03:57;9.70;;;7.55;;
79533;SDS011;68982;52.160;6.736;2023-08-06T13:06:23;10.02;;;7.28;;
79533;SDS011;68982;52.160;6.736;2023-08-06T13:08:48;11.63;;;7.78;;
79533;SDS011;68982;52.160;6.736;2023-08-06T13:11:14;11.15;;;8.52;;
79533;SDS011;68982;52.160;6.736;2023-08-06T13:13:39;9.98;;;7.95;;
79533;SDS011;68982;52.160;6.736;2023-08-06T13:16:04;11.48;;;8.35;;
79533;SDS011;68982;52.160;6.736;2023-08-06T13:18:30;12.30;;;8.23;;
79533;SDS011;68982;52.160;6.736;2023-08-06T13:20:56;10.43;;;8.25;;
79533;SDS011;68982;52.160;6.736;2023-08-06T13:23:21;14.25;;;8.73;;
79533;SDS011;68982;52.160;6.736;2023-08-06T13:25:47;10.98;;;9.38;;
79533;SDS011;68982;52.160;6.736;2023-08-06T13:28:12;12.32;;;9.55;;
79533;SDS011;68982;52.160;6.736;2023-08-06T13:30:39;11.60;;;9.88;;
79533;SDS011;68982;52.160;6.736;2023-08-06T13:33:10;12.93;;;10.35;;
79533;SDS011;68982;52.160;6.736;2023-08-06T13:35:36;13.00;;;9.63;;
79533;SDS011;68982;52.160;6.736;2023-08-06T13:38:02;11.98;;;9.70;;
79533;SDS011;68982;52.160;6.736;2023-08-06T13:40:33;13.98;;;10.05;;
79533;SDS011;68982;52.160;6.736;2023-08-06T13:42:59;12.70;;;9.70;;
79533;SDS011;68982;52.160;6.736;2023-08-06T13:45:25;14.02;;;10.00;;
79533;SDS011;68982;52.160;6.736;2023-08-06T13:47:50;8.20;;;7.32;;
79533;SDS011;68982;52.160;6.736;2023-08-06T13:50:16;9.45;;;5.85;;
79533;SDS011;68982;52.160;6.736;2023-08-06T13:52:42;6.07;;;5.20;;
79533;SDS011;68982;52.160;6.736;2023-08-06T13:55:07;5.97;;;3.80;;
79533;SDS011;68982;52.160;6.736;2023-08-06T13:57:34;6.95;;;3.70;;
79533;SDS011;68982;52.160;6.736;2023-08-06T13:59:59;5.78;;;3.20;;
79533;SDS011;68982;52.160;6.736;2023-08-06T14:02:25;4.68;;;2.88;;
79533;SDS011;68982;52.160;6.736;2023-08-06T14:04:52;5.32;;;3.30;;
79533;SDS011;68982;52.160;6.736;2023-08-06T14:07:17;5.88;;;3.28;;
79533;SDS011;68982;52.160;6.736;2023-08-06T14:09:43;5.25;;;2.80;;
79533;SDS011;68982;52.160;6.736;2023-08-06T14:12:09;4.22;;;2.75;;
79533;SDS011;68982;52.160;6.736;2023-08-06T14:14:34;5.90;;;2.70;;
79533;SDS011;68982;52.160;6.736;2023-08-06T14:17:00;7.10;;;3.05;;
79533;SDS011;68982;52.160;6.736;2023-08-06T14:19:26;3.75;;;2.53;;
79533;SDS011;68982;52.160;6.736;2023-08-06T14:21:51;5.20;;;2.97;;
79533;SDS011;68982;52.160;6.736;2023-08-06T14:24:17;4.13;;;3.03;;
79533;SDS011;68982;52.160;6.736;2023-08-06T14:26:42;9.90;;;3.47;;
79533;SDS011;68982;52.160;6.736;2023-08-06T14:29:08;5.95;;;3.58;;
79533;SDS011;68982;52.160;6.736;2023-08-06T14:31:33;4.45;;;3.53;;
79533;SDS011;68982;52.160;6.736;2023-08-06T14:33:58;5.93;;;3.40;;
79533;SDS011;68982;52.160;6.736;2023-08-06T14:36:25;4.47;;;3.63;;
79533;SDS011;68982;52.160;6.736;2023-08-06T14:38:51;5.93;;;3.50;;
79533;SDS011;68982;52.160;6.736;2023-08-06T14:41:16;5.18;;;3.50;;
79533;SDS011;68982;52.160;6.736;2023-08-06T14:43:42;6.28;;;4.00;;
79533;SDS011;68982;52.160;6.736;2023-08-06T14:46:07;8.30;;;4.00;;
79533;SDS011;68982;52.160;6.736;2023-08-06T14:48:32;5.05;;;3.58;;
79533;SDS011;68982;52.160;6.736;2023-08-06T14:50:58;5.78;;;4.07;;